sensor_id;sensor_type;location;lat;lon;timestamp;pressure;altitude;pressure_sealevel;temperature;humidity
31403;BME280;18039;52.188;21.024;2022-11-15T00:01:44;77428.16;;;-141.45;94.40
31403;BME280;18039;52.188;21.024;2022-11-15T00:04:30;77422.06;;;-141.45;93.95
31403;BME280;18039;52.188;21.024;2022-11-15T00:07:16;77416.00;;;-141.45;93.99
31403;BME280;18039;52.188;21.024;2022-11-15T00:10:21;77420.06;;;-141.45;94.18
31403;BME280;18039;52.188;21.024;2022-11-15T00:13:11;77416.00;;;-141.45;94.20
31403;BME280;18039;52.188;21.024;2022-11-15T00:15:59;77428.16;;;-141.45;94.43
31403;BME280;18039;52.188;21.024;2022-11-15T00:18:45;77428.16;;;-141.45;94.95
31403;BME280;18039;52.188;21.024;2022-11-15T00:21:35;77428.16;;;-141.45;94.51
31403;BME280;18039;52.188;21.024;2022-11-15T00:24:21;77424.09;;;-141.45;95.09
31403;BME280;18039;52.188;21.024;2022-11-15T00:27:06;77416.00;;;-141.45;95.24
31403;BME280;18039;52.188;21.024;2022-11-15T00:29:52;77411.94;;;-141.45;95.12
31403;BME280;18039;52.188;21.024;2022-11-15T00:32:39;77407.88;;;-141.45;95.07
31403;BME280;18039;52.188;21.024;2022-11-15T00:35:24;77405.84;;;-141.45;95.03
31403;BME280;18039;52.188;21.024;2022-11-15T00:38:10;77403.84;;;-141.45;95.03
31403;BME280;18039;52.188;21.024;2022-11-15T00:40:56;77391.66;;;-141.45;95.07
31403;BME280;18039;52.188;21.024;2022-11-15T00:43:41;77391.66;;;-141.45;94.88
31403;BME280;18039;52.188;21.024;2022-11-15T00:46:29;77389.63;;;-141.45;94.85
31403;BME280;18039;52.188;21.024;2022-11-15T00:49:14;77383.56;;;-141.45;95.03
31403;BME280;18039;52.188;21.024;2022-11-15T00:52:00;77379.50;;;-141.45;95.06
31403;BME280;18039;52.188;21.024;2022-11-15T00:54:45;77381.53;;;-141.45;95.17
31403;BME280;18039;52.188;21.024;2022-11-15T00:57:31;77375.44;;;-141.45;95.13
31403;BME280;18039;52.188;21.024;2022-11-15T01:00:17;77379.50;;;-141.45;95.14
31403;BME280;18039;52.188;21.024;2022-11-15T01:03:03;77371.38;;;-141.45;95.17
31403;BME280;18039;52.188;21.024;2022-11-15T01:05:49;77367.34;;;-141.45;95.47
31403;BME280;18039;52.188;21.024;2022-11-15T01:08:34;77367.34;;;-141.45;95.58
31403;BME280;18039;52.188;21.024;2022-11-15T01:11:20;77375.44;;;-141.45;95.90
31403;BME280;18039;52.188;21.024;2022-11-15T01:14:05;77371.38;;;-141.45;95.82
31403;BME280;18039;52.188;21.024;2022-11-15T01:16:51;77371.38;;;-141.45;96.07
31403;BME280;18039;52.188;21.024;2022-11-15T01:19:36;77371.38;;;-141.45;96.35
31403;BME280;18039;52.188;21.024;2022-11-15T01:22:22;77371.38;;;-141.45;96.38
31403;BME280;18039;52.188;21.024;2022-11-15T01:25:08;77367.34;;;-141.45;96.64
31403;BME280;18039;52.188;21.024;2022-11-15T01:27:53;77363.28;;;-141.45;96.59
31403;BME280;18039;52.188;21.024;2022-11-15T01:30:39;77355.16;;;-141.45;96.74
31403;BME280;18039;52.188;21.024;2022-11-15T01:33:25;77347.06;;;-141.45;96.51
31403;BME280;18039;52.188;21.024;2022-11-15T01:36:19;77336.91;;;-141.45;96.70
31403;BME280;18039;52.188;21.024;2022-11-15T01:39:07;77338.94;;;-141.45;96.09
31403;BME280;18039;52.188;21.024;2022-11-15T01:41:53;77357.19;;;-141.45;96.58
31403;BME280;18039;52.188;21.024;2022-11-15T01:44:43;77351.13;;;-141.45;96.79
31403;BME280;18039;52.188;21.024;2022-11-15T01:47:35;77353.13;;;-141.45;96.85
31403;BME280;18039;52.188;21.024;2022-11-15T01:50:26;77347.06;;;-141.45;96.94
31403;BME280;18039;52.188;21.024;2022-11-15T01:53:15;77351.13;;;-141.45;96.80
31403;BME280;18039;52.188;21.024;2022-11-15T01:56:04;77345.03;;;-141.45;97.02
31403;BME280;18039;52.188;21.024;2022-11-15T01:58:52;77347.06;;;-141.45;96.98
31403;BME280;18039;52.188;21.024;2022-11-15T02:01:39;77347.06;;;-141.45;96.97
31403;BME280;18039;52.188;21.024;2022-11-15T02:04:28;77347.06;;;-141.45;97.34
31403;BME280;18039;52.188;21.024;2022-11-15T02:07:17;77343.00;;;-141.45;97.16
31403;BME280;18039;52.188;21.024;2022-11-15T02:10:18;77338.94;;;-141.45;97.21
31403;BME280;18039;52.188;21.024;2022-11-15T02:13:03;77334.91;;;-141.45;97.23
31403;BME280;18039;52.188;21.024;2022-11-15T02:15:59;77338.94;;;-141.45;97.35
31403;BME280;18039;52.188;21.024;2022-11-15T02:21:45;77326.78;;;-141.45;97.36
31403;BME280;18039;52.188;21.024;2022-11-15T02:30:40;77314.63;;;-141.45;97.56
31403;BME280;18039;52.188;21.024;2022-11-15T02:33:42;77300.44;;;-141.45;97.35
31403;BME280;18039;52.188;21.024;2022-11-15T02:36:40;77296.38;;;-141.45;97.42
31403;BME280;18039;52.188;21.024;2022-11-15T02:39:50;77294.34;;;-141.45;96.97
31403;BME280;18039;52.188;21.024;2022-11-15T02:42:41;77294.34;;;-141.45;96.65
31403;BME280;18039;52.188;21.024;2022-11-15T02:46:04;77294.34;;;-141.45;97.08
31403;BME280;18039;52.188;21.024;2022-11-15T02:48:53;77294.34;;;-141.45;96.48
31403;BME280;18039;52.188;21.024;2022-11-15T02:51:40;77296.38;;;-141.45;96.80
31403;BME280;18039;52.188;21.024;2022-11-15T02:54:30;77290.28;;;-141.45;96.99
31403;BME280;18039;52.188;21.024;2022-11-15T02:57:18;77278.13;;;-141.45;97.08
31403;BME280;18039;52.188;21.024;2022-11-15T03:00:12;77282.19;;;-141.45;96.70
31403;BME280;18039;52.188;21.024;2022-11-15T03:03:25;77282.19;;;-141.45;97.01
31403;BME280;18039;52.188;21.024;2022-11-15T03:06:36;77282.19;;;-141.45;96.75
31403;BME280;18039;52.188;21.024;2022-11-15T03:09:34;77274.06;;;-141.45;96.83
31403;BME280;18039;52.188;21.024;2022-11-15T03:12:27;77282.19;;;-141.45;96.70
31403;BME280;18039;52.188;21.024;2022-11-15T03:15:29;77282.19;;;-141.45;96.90
31403;BME280;18039;52.188;21.024;2022-11-15T03:18:22;77278.13;;;-141.45;96.94
31403;BME280;18039;52.188;21.024;2022-11-15T03:21:14;77274.06;;;-141.45;97.57
31403;BME280;18039;52.188;21.024;2022-11-15T03:24:03;77290.28;;;-141.45;97.22
31403;BME280;18039;52.188;21.024;2022-11-15T03:26:52;77290.28;;;-141.45;97.35
31403;BME280;18039;52.188;21.024;2022-11-15T03:29:42;77270.00;;;-141.45;97.76
31403;BME280;18039;52.188;21.024;2022-11-15T03:32:31;77267.97;;;-141.45;97.52
31403;BME280;18039;52.188;21.024;2022-11-15T03:35:21;77270.00;;;-141.45;97.21
31403;BME280;18039;52.188;21.024;2022-11-15T03:38:17;77265.97;;;-141.45;97.71
31403;BME280;18039;52.188;21.024;2022-11-15T03:41:12;77257.84;;;-141.45;97.71
31403;BME280;18039;52.188;21.024;2022-11-15T03:44:16;77255.81;;;-141.45;97.55
31403;BME280;18039;52.188;21.024;2022-11-15T03:47:10;77257.84;;;-141.45;97.58
31403;BME280;18039;52.188;21.024;2022-11-15T03:50:12;77261.91;;;-141.45;97.89
31403;BME280;18039;52.188;21.024;2022-11-15T03:52:59;77261.91;;;-141.45;98.08
31403;BME280;18039;52.188;21.024;2022-11-15T03:55:44;77259.88;;;-141.45;98.11
31403;BME280;18039;52.188;21.024;2022-11-15T03:58:30;77257.84;;;-141.45;98.14
31403;BME280;18039;52.188;21.024;2022-11-15T04:01:16;77257.84;;;-141.45;97.75
31403;BME280;18039;52.188;21.024;2022-11-15T04:04:02;77257.84;;;-141.45;98.11
31403;BME280;18039;52.188;21.024;2022-11-15T04:06:48;77253.78;;;-141.45;98.21
31403;BME280;18039;52.188;21.024;2022-11-15T04:09:34;77241.63;;;-141.45;98.38
31403;BME280;18039;52.188;21.024;2022-11-15T04:12:43;77233.53;;;-141.45;98.27
31403;BME280;18039;52.188;21.024;2022-11-15T04:15:29;77241.63;;;-141.45;98.15
31403;BME280;18039;52.188;21.024;2022-11-15T04:18:15;77237.56;;;-141.45;98.15
31403;BME280;18039;52.188;21.024;2022-11-15T04:21:01;77241.63;;;-141.45;97.94
31403;BME280;18039;52.188;21.024;2022-11-15T04:24:06;77241.63;;;-141.45;97.49
31403;BME280;18039;52.188;21.024;2022-11-15T04:26:57;77241.63;;;-141.45;97.89
31403;BME280;18039;52.188;21.024;2022-11-15T04:29:43;77253.78;;;-141.45;97.63
31403;BME280;18039;52.188;21.024;2022-11-15T04:32:29;77245.69;;;-141.45;98.24
31403;BME280;18039;52.188;21.024;2022-11-15T04:35:14;77241.63;;;-141.45;98.49
31403;BME280;18039;52.188;21.024;2022-11-15T04:38:01;77235.53;;;-141.45;98.45
31403;BME280;18039;52.188;21.024;2022-11-15T04:40:47;77237.56;;;-141.45;98.73
31403;BME280;18039;52.188;21.024;2022-11-15T04:43:32;77233.53;;;-141.45;98.33
31403;BME280;18039;52.188;21.024;2022-11-15T04:46:18;77241.63;;;-141.45;98.44
31403;BME280;18039;52.188;21.024;2022-11-15T04:49:04;77245.69;;;-141.45;98.36
31403;BME280;18039;52.188;21.024;2022-11-15T04:51:49;77245.69;;;-141.45;98.30
31403;BME280;18039;52.188;21.024;2022-11-15T04:54:35;77247.72;;;-141.45;99.13
31403;BME280;18039;52.188;21.024;2022-11-15T04:57:20;77241.63;;;-141.45;99.26
31403;BME280;18039;52.188;21.024;2022-11-15T05:00:09;77233.53;;;-141.45;99.27
31403;BME280;18039;52.188;21.024;2022-11-15T05:02:56;77221.34;;;-141.45;99.19
31403;BME280;18039;52.188;21.024;2022-11-15T05:06:01;77225.41;;;-141.45;98.88
31403;BME280;18039;52.188;21.024;2022-11-15T05:08:47;77221.34;;;-141.45;98.84
31403;BME280;18039;52.188;21.024;2022-11-15T05:11:33;77225.41;;;-141.45;98.71
31403;BME280;18039;52.188;21.024;2022-11-15T05:14:18;77217.28;;;-141.45;98.82
31403;BME280;18039;52.188;21.024;2022-11-15T05:17:04;77227.44;;;-141.45;98.21
31403;BME280;18039;52.188;21.024;2022-11-15T05:19:49;77225.41;;;-141.45;99.00
31403;BME280;18039;52.188;21.024;2022-11-15T05:22:37;77219.31;;;-141.45;99.27
31403;BME280;18039;52.188;21.024;2022-11-15T05:25:23;77217.28;;;-141.45;99.00
31403;BME280;18039;52.188;21.024;2022-11-15T05:28:08;77209.19;;;-141.45;99.20
31403;BME280;18039;52.188;21.024;2022-11-15T05:31:01;77217.28;;;-141.45;98.76
31403;BME280;18039;52.188;21.024;2022-11-15T05:33:48;77225.41;;;-141.45;98.54
31403;BME280;18039;52.188;21.024;2022-11-15T05:36:41;77225.41;;;-141.45;98.14
31403;BME280;18039;52.188;21.024;2022-11-15T05:39:27;77229.47;;;-141.45;98.98
31403;BME280;18039;52.188;21.024;2022-11-15T05:42:14;77229.47;;;-141.45;98.68
31403;BME280;18039;52.188;21.024;2022-11-15T05:45:02;77241.63;;;-141.45;98.82
31403;BME280;18039;52.188;21.024;2022-11-15T05:47:49;77241.63;;;-141.45;98.92
31403;BME280;18039;52.188;21.024;2022-11-15T05:50:38;77229.47;;;-141.45;98.85
31403;BME280;18039;52.188;21.024;2022-11-15T05:53:25;77235.53;;;-141.45;98.91
31403;BME280;18039;52.188;21.024;2022-11-15T05:56:11;77229.47;;;-141.45;99.12
31403;BME280;18039;52.188;21.024;2022-11-15T05:58:58;77229.47;;;-141.45;99.08
31403;BME280;18039;52.188;21.024;2022-11-15T06:01:45;77233.53;;;-141.45;98.93
31403;BME280;18039;52.188;21.024;2022-11-15T06:04:31;77241.63;;;-141.45;99.29
31403;BME280;18039;52.188;21.024;2022-11-15T06:07:17;77241.63;;;-141.45;99.79
31403;BME280;18039;52.188;21.024;2022-11-15T06:10:21;77257.84;;;-141.45;99.51
31403;BME280;18039;52.188;21.024;2022-11-15T06:13:07;77259.88;;;-141.45;99.74
31403;BME280;18039;52.188;21.024;2022-11-15T06:15:55;77265.97;;;-141.45;100.00
31403;BME280;18039;52.188;21.024;2022-11-15T06:18:42;77265.97;;;-141.45;100.00
31403;BME280;18039;52.188;21.024;2022-11-15T06:21:27;77259.88;;;-141.45;100.00
31403;BME280;18039;52.188;21.024;2022-11-15T06:24:14;77257.84;;;-141.45;100.00
31403;BME280;18039;52.188;21.024;2022-11-15T06:27:00;77245.69;;;-141.45;100.00
31403;BME280;18039;52.188;21.024;2022-11-15T06:29:45;77237.56;;;-141.45;100.00
31403;BME280;18039;52.188;21.024;2022-11-15T06:32:30;77233.53;;;-141.45;100.00
31403;BME280;18039;52.188;21.024;2022-11-15T06:35:16;77229.47;;;-141.45;99.98
31403;BME280;18039;52.188;21.024;2022-11-15T06:38:08;77255.81;;;-141.45;99.00
31403;BME280;18039;52.188;21.024;2022-11-15T06:40:54;77245.69;;;-141.45;99.68
31403;BME280;18039;52.188;21.024;2022-11-15T06:43:40;77243.66;;;-141.45;99.76
31403;BME280;18039;52.188;21.024;2022-11-15T06:46:26;77241.63;;;-141.45;99.65
31403;BME280;18039;52.188;21.024;2022-11-15T06:49:11;77231.50;;;-141.45;99.80
31403;BME280;18039;52.188;21.024;2022-11-15T06:51:58;77229.47;;;-141.45;99.38
31403;BME280;18039;52.188;21.024;2022-11-15T06:54:43;77229.47;;;-141.45;99.51
31403;BME280;18039;52.188;21.024;2022-11-15T06:57:29;77213.25;;;-141.45;99.48
31403;BME280;18039;52.188;21.024;2022-11-15T07:00:15;77233.53;;;-141.45;98.86
31403;BME280;18039;52.188;21.024;2022-11-15T07:03:02;77233.53;;;-141.45;98.90
31403;BME280;18039;52.188;21.024;2022-11-15T07:05:55;77245.69;;;-141.45;98.31
31403;BME280;18039;52.188;21.024;2022-11-15T07:08:42;77241.63;;;-141.45;98.49
31403;BME280;18039;52.188;21.024;2022-11-15T07:11:28;77249.75;;;-141.45;98.68
31403;BME280;18039;52.188;21.024;2022-11-15T07:14:14;77231.50;;;-141.45;99.02
31403;BME280;18039;52.188;21.024;2022-11-15T07:17:03;77225.41;;;-141.45;98.93
31403;BME280;18039;52.188;21.024;2022-11-15T07:19:49;77233.53;;;-141.45;97.99
31403;BME280;18039;52.188;21.024;2022-11-15T07:22:34;77233.53;;;-141.45;98.11
31403;BME280;18039;52.188;21.024;2022-11-15T07:25:20;77243.66;;;-141.45;97.92
31403;BME280;18039;52.188;21.024;2022-11-15T07:28:05;77249.75;;;-141.45;96.92
31403;BME280;18039;52.188;21.024;2022-11-15T07:30:51;77249.75;;;-141.45;97.00
31403;BME280;18039;52.188;21.024;2022-11-15T07:33:37;77257.84;;;-141.45;96.56
31403;BME280;18039;52.188;21.024;2022-11-15T07:36:22;77257.84;;;-141.45;96.85
31403;BME280;18039;52.188;21.024;2022-11-15T07:39:09;77261.91;;;-141.45;96.70
31403;BME280;18039;52.188;21.024;2022-11-15T07:41:55;77249.75;;;-141.45;96.42
31403;BME280;18039;52.188;21.024;2022-11-15T07:45:01;77249.75;;;-141.45;96.89
31403;BME280;18039;52.188;21.024;2022-11-15T07:47:48;77241.63;;;-141.45;97.07
31403;BME280;18039;52.188;21.024;2022-11-15T07:50:34;77225.41;;;-141.45;97.25
31403;BME280;18039;52.188;21.024;2022-11-15T07:53:20;77221.34;;;-141.45;96.44
31403;BME280;18039;52.188;21.024;2022-11-15T07:56:07;77209.19;;;-141.45;96.92
31403;BME280;18039;52.188;21.024;2022-11-15T07:58:54;77197.03;;;-141.45;96.50
31403;BME280;18039;52.188;21.024;2022-11-15T08:01:39;77205.13;;;-141.45;94.49
31403;BME280;18039;52.188;21.024;2022-11-15T08:04:25;77195.00;;;-141.45;94.68
31403;BME280;18039;52.188;21.024;2022-11-15T08:07:11;77192.97;;;-141.45;94.63
31403;BME280;18039;52.188;21.024;2022-11-15T08:09:57;77190.94;;;-141.45;93.95
31403;BME280;18039;52.188;21.024;2022-11-15T08:12:44;77197.03;;;-141.45;94.04
31403;BME280;18039;52.188;21.024;2022-11-15T08:15:31;77199.06;;;-141.45;95.02
31403;BME280;18039;52.188;21.024;2022-11-15T08:18:17;77190.94;;;-141.45;95.32
31403;BME280;18039;52.188;21.024;2022-11-15T08:21:03;77184.84;;;-141.45;95.24
31403;BME280;18039;52.188;21.024;2022-11-15T08:23:49;77172.69;;;-141.45;95.44
31403;BME280;18039;52.188;21.024;2022-11-15T08:26:35;77156.47;;;-141.45;95.82
31403;BME280;18039;52.188;21.024;2022-11-15T08:29:20;77144.31;;;-141.45;95.39
31403;BME280;18039;52.188;21.024;2022-11-15T08:32:06;77132.16;;;-141.45;95.39
31403;BME280;18039;52.188;21.024;2022-11-15T08:34:53;77128.09;;;-141.45;94.52
31403;BME280;18039;52.188;21.024;2022-11-15T08:37:38;77130.13;;;-141.45;93.69
31403;BME280;18039;52.188;21.024;2022-11-15T08:40:24;77130.13;;;-141.45;92.85
31403;BME280;18039;52.188;21.024;2022-11-15T08:43:10;77142.28;;;-141.45;92.98
31403;BME280;18039;52.188;21.024;2022-11-15T08:45:56;77140.25;;;-141.45;93.91
31403;BME280;18039;52.188;21.024;2022-11-15T08:48:42;77126.06;;;-141.45;94.16
31403;BME280;18039;52.188;21.024;2022-11-15T08:51:28;77111.88;;;-141.45;93.97
31403;BME280;18039;52.188;21.024;2022-11-15T08:54:15;77107.81;;;-141.45;93.73
31403;BME280;18039;52.188;21.024;2022-11-15T08:57:00;77103.75;;;-141.45;93.07
31403;BME280;18039;52.188;21.024;2022-11-15T08:59:45;77107.81;;;-141.45;92.62
31403;BME280;18039;52.188;21.024;2022-11-15T09:02:31;77115.94;;;-141.45;92.37
31403;BME280;18039;52.188;21.024;2022-11-15T09:05:17;77099.72;;;-141.45;92.72
31403;BME280;18039;52.188;21.024;2022-11-15T09:08:04;77091.59;;;-141.45;93.18
31403;BME280;18039;52.188;21.024;2022-11-15T09:11:10;77083.50;;;-141.45;92.66
31403;BME280;18039;52.188;21.024;2022-11-15T09:13:56;77071.31;;;-141.45;92.58
31403;BME280;18039;52.188;21.024;2022-11-15T09:16:41;77079.44;;;-141.45;91.62
31403;BME280;18039;52.188;21.024;2022-11-15T09:19:27;77083.50;;;-141.45;92.00
31403;BME280;18039;52.188;21.024;2022-11-15T09:22:13;77071.31;;;-141.45;92.75
31403;BME280;18039;52.188;21.024;2022-11-15T09:24:58;77071.31;;;-141.45;90.52
31403;BME280;18039;52.188;21.024;2022-11-15T09:27:44;77095.66;;;-141.45;91.68
31403;BME280;18039;52.188;21.024;2022-11-15T09:30:30;77099.72;;;-141.45;91.63
31403;BME280;18039;52.188;21.024;2022-11-15T09:33:16;77111.88;;;-141.45;92.25
31403;BME280;18039;52.188;21.024;2022-11-15T09:36:06;77134.16;;;-141.45;93.84
31403;BME280;18039;52.188;21.024;2022-11-15T09:38:52;77124.03;;;-141.45;94.52
31403;BME280;18039;52.188;21.024;2022-11-15T09:42:02;77107.81;;;-141.45;94.88
31403;BME280;18039;52.188;21.024;2022-11-15T09:44:55;77083.50;;;-141.45;94.30
31403;BME280;18039;52.188;21.024;2022-11-15T09:48:08;77079.44;;;-141.45;93.41
31403;BME280;18039;52.188;21.024;2022-11-15T09:51:04;77099.72;;;-141.45;92.87
31403;BME280;18039;52.188;21.024;2022-11-15T09:53:51;77079.44;;;-141.45;93.98
31403;BME280;18039;52.188;21.024;2022-11-15T09:56:42;77067.28;;;-141.45;94.12
31403;BME280;18039;52.188;21.024;2022-11-15T10:04:25;77034.84;;;-141.45;93.97
31403;BME280;18039;52.188;21.024;2022-11-15T10:09:55;77026.72;;;-141.45;93.99
31403;BME280;18039;52.188;21.024;2022-11-15T10:12:27;77010.50;;;-141.45;93.61
31403;BME280;18039;52.188;21.024;2022-11-15T10:15:02;77006.44;;;-141.45;93.41
31403;BME280;18039;52.188;21.024;2022-11-15T10:18:04;77010.50;;;-141.45;92.34
31403;BME280;18039;52.188;21.024;2022-11-15T10:20:57;77010.50;;;-141.45;93.00
31403;BME280;18039;52.188;21.024;2022-11-15T10:23:26;77010.50;;;-141.45;93.41
31403;BME280;18039;52.188;21.024;2022-11-15T10:25:57;77002.41;;;-141.45;93.46
31403;BME280;18039;52.188;21.024;2022-11-15T10:28:32;76990.22;;;-141.45;93.62
31403;BME280;18039;52.188;21.024;2022-11-15T10:31:00;76978.06;;;-141.45;93.51
31403;BME280;18039;52.188;21.024;2022-11-15T10:33:36;76965.91;;;-141.45;92.34
31403;BME280;18039;52.188;21.024;2022-11-15T10:39:02;76990.22;;;-141.45;91.21
31403;BME280;18039;52.188;21.024;2022-11-15T10:41:32;77002.41;;;-141.45;92.21
31403;BME280;18039;52.188;21.024;2022-11-15T10:46:36;77010.50;;;-141.45;92.64
31403;BME280;18039;52.188;21.024;2022-11-15T10:49:27;76990.22;;;-141.45;93.19
31403;BME280;18039;52.188;21.024;2022-11-15T10:54:45;76974.00;;;-141.45;92.67
31403;BME280;18039;52.188;21.024;2022-11-15T10:57:22;76961.84;;;-141.45;92.83
31403;BME280;18039;52.188;21.024;2022-11-15T10:59:59;76957.78;;;-141.45;92.45
31403;BME280;18039;52.188;21.024;2022-11-15T11:02:31;76939.53;;;-141.45;92.71
31403;BME280;18039;52.188;21.024;2022-11-15T11:04:59;76933.47;;;-141.45;92.50
31403;BME280;18039;52.188;21.024;2022-11-15T11:07:32;76925.34;;;-141.45;92.45
31403;BME280;18039;52.188;21.024;2022-11-15T11:10:21;76913.19;;;-141.45;92.11
31403;BME280;18039;52.188;21.024;2022-11-15T11:13:25;76917.25;;;-141.45;90.92
31403;BME280;18039;52.188;21.024;2022-11-15T11:16:09;76909.13;;;-141.45;92.11
31403;BME280;18039;52.188;21.024;2022-11-15T11:19:01;76901.03;;;-141.45;91.84
31403;BME280;18039;52.188;21.024;2022-11-15T11:26:48;76915.22;;;-141.45;91.24
31403;BME280;18039;52.188;21.024;2022-11-15T11:29:33;76929.41;;;-141.45;90.65
31403;BME280;18039;52.188;21.024;2022-11-15T11:38:19;76917.25;;;-141.45;92.48
31403;BME280;18039;52.188;21.024;2022-11-15T11:41:10;76921.31;;;-141.45;92.25
31403;BME280;18039;52.188;21.024;2022-11-15T11:51:38;76925.34;;;-141.45;92.57
31403;BME280;18039;52.188;21.024;2022-11-15T11:54:20;76921.31;;;-141.45;93.07
31403;BME280;18039;52.188;21.024;2022-11-15T11:56:50;76905.09;;;-141.45;93.48
31403;BME280;18039;52.188;21.024;2022-11-15T11:59:28;76884.81;;;-141.45;93.62
31403;BME280;18039;52.188;21.024;2022-11-15T12:02:01;76876.69;;;-141.45;92.33
31403;BME280;18039;52.188;21.024;2022-11-15T12:04:38;76866.56;;;-141.45;92.50
31403;BME280;18039;52.188;21.024;2022-11-15T12:07:15;76864.53;;;-141.45;92.37
31403;BME280;18039;52.188;21.024;2022-11-15T12:09:59;76860.47;;;-141.45;91.98
31403;BME280;18039;52.188;21.024;2022-11-15T12:12:39;76862.50;;;-141.45;92.20
31403;BME280;18039;52.188;21.024;2022-11-15T12:15:17;76846.28;;;-141.45;91.82
31403;BME280;18039;52.188;21.024;2022-11-15T12:17:45;76848.31;;;-141.45;91.74
31403;BME280;18039;52.188;21.024;2022-11-15T12:20:23;76844.25;;;-141.45;91.99
31403;BME280;18039;52.188;21.024;2022-11-15T12:23:08;76840.22;;;-141.45;92.04
31403;BME280;18039;52.188;21.024;2022-11-15T12:28:55;76815.88;;;-141.45;91.20
31403;BME280;18039;52.188;21.024;2022-11-15T12:34:03;76819.94;;;-141.45;90.43
31403;BME280;18039;52.188;21.024;2022-11-15T12:36:39;76813.84;;;-141.45;90.91
31403;BME280;18039;52.188;21.024;2022-11-15T12:39:08;76819.94;;;-141.45;90.18
31403;BME280;18039;52.188;21.024;2022-11-15T12:41:39;76819.94;;;-141.45;91.20
31403;BME280;18039;52.188;21.024;2022-11-15T12:44:12;76811.81;;;-141.45;90.94
31403;BME280;18039;52.188;21.024;2022-11-15T12:49:41;76791.56;;;-141.45;90.74
31403;BME280;18039;52.188;21.024;2022-11-15T13:02:26;76791.56;;;-141.45;90.55
31403;BME280;18039;52.188;21.024;2022-11-15T13:10:28;76811.81;;;-141.45;90.34
31403;BME280;18039;52.188;21.024;2022-11-15T13:13:08;76809.81;;;-141.45;90.85
31403;BME280;18039;52.188;21.024;2022-11-15T13:15:56;76807.78;;;-141.45;90.84
31403;BME280;18039;52.188;21.024;2022-11-15T13:18:37;76803.72;;;-141.45;90.62
31403;BME280;18039;52.188;21.024;2022-11-15T13:21:19;76807.78;;;-141.45;90.72
31403;BME280;18039;52.188;21.024;2022-11-15T13:24:12;76803.72;;;-141.45;90.64
31403;BME280;18039;52.188;21.024;2022-11-15T13:26:39;76811.81;;;-141.45;90.63
31403;BME280;18039;52.188;21.024;2022-11-15T13:29:17;76813.84;;;-141.45;91.03
31403;BME280;18039;52.188;21.024;2022-11-15T13:31:46;76807.78;;;-141.45;91.41
31403;BME280;18039;52.188;21.024;2022-11-15T13:34:28;76799.66;;;-141.45;91.43
31403;BME280;18039;52.188;21.024;2022-11-15T13:39:48;76807.78;;;-141.45;90.46
31403;BME280;18039;52.188;21.024;2022-11-15T13:42:17;76803.72;;;-141.45;91.27
31403;BME280;18039;52.188;21.024;2022-11-15T13:45:02;76807.78;;;-141.45;91.81
31403;BME280;18039;52.188;21.024;2022-11-15T13:47:31;76797.63;;;-141.45;91.74
31403;BME280;18039;52.188;21.024;2022-11-15T13:49:59;76791.56;;;-141.45;91.73
31403;BME280;18039;52.188;21.024;2022-11-15T13:52:33;76787.50;;;-141.45;91.39
31403;BME280;18039;52.188;21.024;2022-11-15T13:55:08;76791.56;;;-141.45;90.98
31403;BME280;18039;52.188;21.024;2022-11-15T13:57:50;76799.66;;;-141.45;91.29
31403;BME280;18039;52.188;21.024;2022-11-15T14:00:32;76803.72;;;-141.45;91.09
31403;BME280;18039;52.188;21.024;2022-11-15T14:03:10;76807.78;;;-141.45;91.10
31403;BME280;18039;52.188;21.024;2022-11-15T14:05:41;76807.78;;;-141.45;91.16
31403;BME280;18039;52.188;21.024;2022-11-15T14:10:43;76803.72;;;-141.45;91.69
31403;BME280;18039;52.188;21.024;2022-11-15T14:13:27;76807.78;;;-141.45;91.45
31403;BME280;18039;52.188;21.024;2022-11-15T14:16:12;76815.88;;;-141.45;91.02
31403;BME280;18039;52.188;21.024;2022-11-15T14:19:06;76811.81;;;-141.45;91.68
31403;BME280;18039;52.188;21.024;2022-11-15T14:21:36;76815.88;;;-141.45;91.70
31403;BME280;18039;52.188;21.024;2022-11-15T14:24:21;76811.81;;;-141.45;92.04
31403;BME280;18039;52.188;21.024;2022-11-15T14:26:48;76803.72;;;-141.45;91.73
31403;BME280;18039;52.188;21.024;2022-11-15T14:29:23;76811.81;;;-141.45;92.10
31403;BME280;18039;52.188;21.024;2022-11-15T14:31:51;76809.81;;;-141.45;92.31
31403;BME280;18039;52.188;21.024;2022-11-15T14:34:18;76807.78;;;-141.45;92.24
31403;BME280;18039;52.188;21.024;2022-11-15T14:36:45;76807.78;;;-141.45;92.55
31403;BME280;18039;52.188;21.024;2022-11-15T14:39:12;76801.69;;;-141.45;92.67
31403;BME280;18039;52.188;21.024;2022-11-15T14:41:40;76795.59;;;-141.45;92.64
31403;BME280;18039;52.188;21.024;2022-11-15T14:44:10;76799.66;;;-141.45;92.25
31403;BME280;18039;52.188;21.024;2022-11-15T14:46:37;76791.56;;;-141.45;92.58
31403;BME280;18039;52.188;21.024;2022-11-15T14:49:05;76799.66;;;-141.45;92.42
31403;BME280;18039;52.188;21.024;2022-11-15T14:51:32;76807.78;;;-141.45;92.55
31403;BME280;18039;52.188;21.024;2022-11-15T14:53:59;76811.81;;;-141.45;92.69
31403;BME280;18039;52.188;21.024;2022-11-15T14:56:27;76821.97;;;-141.45;92.62
31403;BME280;18039;52.188;21.024;2022-11-15T14:58:54;76821.97;;;-141.45;92.64
31403;BME280;18039;52.188;21.024;2022-11-15T15:01:26;76834.13;;;-141.45;92.83
31403;BME280;18039;52.188;21.024;2022-11-15T15:03:53;76836.16;;;-141.45;92.88
31403;BME280;18039;52.188;21.024;2022-11-15T15:06:26;76844.25;;;-141.45;93.16
31403;BME280;18039;52.188;21.024;2022-11-15T15:08:53;76852.38;;;-141.45;93.33
31403;BME280;18039;52.188;21.024;2022-11-15T15:11:23;76848.31;;;-141.45;93.89
31403;BME280;18039;52.188;21.024;2022-11-15T15:13:52;76840.22;;;-141.45;94.07